Time;durP1;ratioP1;P1;durP2;ratioP2;P2;SDS_P1;SDS_P2;PMS_P1;PMS_P2;Temp;Humidity;BMP_temperature;BMP_pressure;BME280_temperature;BME280_humidity;BME280_pressure;Samples;Min_cycle;Max_cycle;Signal;HPM_P1;HPM_P2
2024/03/07 00:02:19;;;;;;;12.20;5.73;;;6.10;99.90;;;;;;7278795;19;20211;-75
2024/03/07 00:04:45;;;;;;;13.90;6.43;;;6.10;99.90;;;;;;7302132;19;20334;-75
2024/03/07 00:07:11;;;;;;;14.83;6.70;;;6.30;99.90;;;;;;7281136;19;20699;-75
2024/03/07 00:09:37;;;;;;;14.20;6.87;;;6.40;99.90;;;;;;7267607;19;20183;-75
2024/03/07 00:12:04;;;;;;;18.37;7.17;;;6.20;99.90;;;;;;7280258;19;20651;-76
2024/03/07 00:14:31;;;;;;;15.93;7.90;;;6.10;99.90;;;;;;7278620;19;20194;-77
2024/03/07 00:17:02;;;;;;;15.50;7.43;;;6.10;99.90;;;;;;7279870;19;20258;-76
2024/03/07 00:19:29;;;;;;;16.83;7.93;;;6.10;99.90;;;;;;7280244;19;20541;-77
2024/03/07 00:21:55;;;;;;;13.80;7.53;;;6.00;99.90;;;;;;7279793;19;20544;-77
2024/03/07 00:24:22;;;;;;;18.63;8.67;;;6.00;99.90;;;;;;7277997;19;20582;-77
2024/03/07 00:26:52;;;;;;;16.30;8.03;;;5.90;99.90;;;;;;7278686;19;20196;-77
2024/03/07 00:29:19;;;;;;;15.07;7.80;;;5.80;99.90;;;;;;7277853;19;20189;-77
2024/03/07 00:31:48;;;;;;;17.33;8.30;;;5.80;99.90;;;;;;7301015;19;20193;-76
2024/03/07 00:34:19;;;;;;;14.33;7.33;;;5.80;99.90;;;;;;7285610;19;20203;-76
2024/03/07 00:36:46;;;;;;;16.93;7.50;;;5.90;99.90;;;;;;7283777;19;20660;-76
2024/03/07 00:39:12;;;;;;;16.57;7.53;;;5.90;99.90;;;;;;7279324;19;20193;-76
2024/03/07 00:41:41;;;;;;;16.83;7.70;;;5.90;99.90;;;;;;7280887;19;20969;-76
2024/03/07 00:44:10;;;;;;;15.83;7.33;;;5.90;99.90;;;;;;7279240;19;20185;-76
2024/03/07 00:46:37;;;;;;;15.27;7.57;;;5.80;99.90;;;;;;7277027;19;20231;-77
2024/03/07 00:49:04;;;;;;;18.77;7.70;;;5.70;99.90;;;;;;7278944;19;20256;-75
2024/03/07 00:51:29;;;;;;;19.90;9.20;;;5.60;99.90;;;;;;7281239;19;20571;-76
2024/03/07 00:53:55;;;;;;;13.50;7.70;;;5.50;99.90;;;;;;7285895;19;20196;-76
2024/03/07 00:56:21;;;;;;;21.33;9.40;;;5.70;99.90;;;;;;7285334;19;20635;-75
2024/03/07 00:58:51;;;;;;;18.20;8.70;;;5.80;99.90;;;;;;7294019;19;20215;-76
2024/03/07 01:01:18;;;;;;;18.27;8.93;;;5.80;99.90;;;;;;7296831;19;20189;-76
2024/03/07 01:03:45;;;;;;;19.80;9.70;;;5.80;99.90;;;;;;7306068;19;20206;-75
2024/03/07 01:06:10;;;;;;;17.37;8.83;;;5.90;99.90;;;;;;7284236;19;20601;-75
2024/03/07 01:08:37;;;;;;;20.90;10.07;;;5.90;99.90;;;;;;7284190;19;20236;-76
2024/03/07 01:11:11;;;;;;;18.57;10.10;;;5.70;99.90;;;;;;7281795;19;20215;-75
2024/03/07 01:13:38;;;;;;;17.47;9.63;;;5.80;99.90;;;;;;7285395;19;20283;-75
2024/03/07 01:16:04;;;;;;;18.03;9.30;;;5.90;99.90;;;;;;7284210;19;20196;-75
2024/03/07 01:18:33;;;;;;;18.83;9.67;;;5.90;99.90;;;;;;7284875;19;20218;-75
2024/03/07 01:20:59;;;;;;;17.10;9.23;;;6.00;99.90;;;;;;7281862;19;20552;-76
2024/03/07 01:23:25;;;;;;;19.03;8.87;;;6.00;99.90;;;;;;7283357;19;20225;-76
2024/03/07 01:25:51;;;;;;;19.73;9.63;;;6.10;99.90;;;;;;7282897;19;20185;-76
2024/03/07 01:28:18;;;;;;;15.93;9.30;;;6.20;99.90;;;;;;7290296;19;20193;-76
2024/03/07 01:30:44;;;;;;;19.10;8.70;;;6.20;99.90;;;;;;7305532;19;20271;-75
2024/03/07 01:33:10;;;;;;;18.33;9.13;;;6.10;99.90;;;;;;7282896;19;20189;-75
2024/03/07 01:35:35;;;;;;;16.87;9.20;;;6.00;99.90;;;;;;7280587;19;21944;-76
2024/03/07 01:38:03;;;;;;;20.83;10.20;;;5.80;99.90;;;;;;7283114;19;20680;-75
2024/03/07 01:40:29;;;;;;;21.70;9.80;;;5.60;99.90;;;;;;7283505;19;20190;-75
2024/03/07 01:42:55;;;;;;;22.33;10.93;;;5.50;99.90;;;;;;7283410;19;20191;-75
2024/03/07 01:45:21;;;;;;;19.27;10.07;;;5.60;99.90;;;;;;7284304;19;20212;-75
2024/03/07 01:47:46;;;;;;;22.53;9.77;;;5.70;99.90;;;;;;7300092;19;20642;-76
2024/03/07 01:50:12;;;;;;;19.97;10.67;;;5.70;99.90;;;;;;7295062;19;20190;-76
2024/03/07 01:52:41;;;;;;;18.90;8.93;;;5.70;99.90;;;;;;7282561;19;20288;-75
2024/03/07 01:55:10;;;;;;;21.33;10.80;;;5.70;99.90;;;;;;7283178;19;20198;-76
2024/03/07 01:57:36;;;;;;;17.63;10.23;;;5.70;99.90;;;;;;7281910;19;20210;-75
2024/03/07 02:00:03;;;;;;;18.00;10.33;;;5.70;99.90;;;;;;7283918;19;20182;-76
2024/03/07 02:02:33;;;;;;;19.17;10.37;;;5.80;99.90;;;;;;7283064;19;20194;-76
2024/03/07 02:04:59;;;;;;;21.70;10.47;;;5.90;99.90;;;;;;7282740;19;20196;-76
2024/03/07 02:07:26;;;;;;;22.27;11.20;;;5.90;99.90;;;;;;7283330;19;20187;-76
2024/03/07 02:10:00;;;;;;;23.87;10.73;;;5.80;99.90;;;;;;7280113;19;20197;-76
2024/03/07 02:12:26;;;;;;;23.43;12.10;;;5.80;99.90;;;;;;7281103;19;20185;-76
2024/03/07 02:14:52;;;;;;;22.47;12.67;;;5.80;99.90;;;;;;7283061;19;20714;-76
2024/03/07 02:17:20;;;;;;;26.87;11.73;;;5.80;99.90;;;;;;7287482;19;20335;-75
2024/03/07 02:19:46;;;;;;;25.87;12.87;;;5.70;99.90;;;;;;7304408;19;20194;-76
2024/03/07 02:22:13;;;;;;;21.33;11.43;;;5.70;99.90;;;;;;7282116;19;20205;-76
2024/03/07 02:24:39;;;;;;;28.27;13.00;;;5.80;99.90;;;;;;7281101;19;20201;-76
2024/03/07 02:27:04;;;;;;;24.70;12.20;;;5.80;99.90;;;;;;7283198;19;20198;-76
2024/03/07 02:29:30;;;;;;;24.80;12.77;;;5.90;99.90;;;;;;7281360;19;20219;-77
2024/03/07 02:31:56;;;;;;;27.27;12.83;;;6.00;99.90;;;;;;7280912;19;20196;-77
2024/03/07 02:34:22;;;;;;;29.07;13.10;;;6.00;99.90;;;;;;7283699;19;20191;-76
2024/03/07 02:36:48;;;;;;;31.13;14.70;;;5.90;99.90;;;;;;7287197;19;20188;-76
2024/03/07 02:39:15;;;;;;;30.37;13.83;;;5.90;99.90;;;;;;7304062;19;20700;-77
2024/03/07 02:41:40;;;;;;;30.17;14.23;;;5.80;99.90;;;;;;7282747;19;20184;-77
2024/03/07 02:44:06;;;;;;;26.97;13.57;;;5.70;99.90;;;;;;7281767;19;20223;-77
2024/03/07 02:46:32;;;;;;;24.60;13.47;;;5.70;99.90;;;;;;7282223;19;20194;-76
2024/03/07 02:48:59;;;;;;;27.23;14.37;;;5.60;99.90;;;;;;7281796;19;20265;-77
2024/03/07 02:51:24;;;;;;;29.87;15.27;;;5.60;99.90;;;;;;7280065;19;20194;-76
2024/03/07 02:53:50;;;;;;;30.47;15.07;;;5.70;99.90;;;;;;7282523;19;20720;-77
2024/03/07 02:56:16;;;;;;;28.50;14.00;;;5.60;99.90;;;;;;7304557;19;20193;-78
2024/03/07 02:58:42;;;;;;;21.90;11.50;;;5.60;99.90;;;;;;7281503;19;20200;-77
2024/03/07 03:01:07;;;;;;;29.10;15.50;;;5.50;99.90;;;;;;7282854;19;20238;-76
2024/03/07 03:03:33;;;;;;;40.97;18.57;;;5.60;99.90;;;;;;7281243;19;20891;-77
2024/03/07 03:05:59;;;;;;;40.43;19.03;;;5.70;99.90;;;;;;7279896;19;20193;-76
2024/03/07 03:08:28;;;;;;;34.37;17.70;;;5.80;99.90;;;;;;7281423;19;20276;-77
2024/03/07 03:10:56;;;;;;;33.57;15.10;;;5.70;99.90;;;;;;7280681;19;20189;-76
2024/03/07 03:13:23;;;;;;;29.63;14.27;;;5.60;99.90;;;;;;7278696;19;20204;-76
2024/03/07 03:15:49;;;;;;;32.03;16.23;;;5.60;99.90;;;;;;7280160;19;20291;-76
2024/03/07 03:18:15;;;;;;;37.97;19.00;;;5.60;99.90;;;;;;7301717;19;20275;-76
2024/03/07 03:20:43;;;;;;;43.00;20.80;;;5.70;99.90;;;;;;7282131;19;20187;-77
2024/03/07 03:23:13;;;;;;;49.40;22.33;;;5.80;99.90;;;;;;7281218;19;20218;-77
2024/03/07 03:25:39;;;;;;;50.83;23.13;;;5.70;99.90;;;;;;7281412;19;20289;-76
2024/03/07 03:28:06;;;;;;;47.50;22.73;;;5.70;99.90;;;;;;7280026;19;20193;-76
2024/03/07 03:30:32;;;;;;;54.33;23.77;;;5.70;99.90;;;;;;7279454;19;20684;-74
2024/03/07 03:32:59;;;;;;;46.43;21.17;;;5.60;99.90;;;;;;7280795;19;20189;-74
2024/03/07 03:35:25;;;;;;;46.73;22.67;;;5.50;99.90;;;;;;7285898;19;20185;-75
2024/03/07 03:37:50;;;;;;;47.43;22.83;;;5.50;99.90;;;;;;7285492;19;21129;-75
2024/03/07 03:40:16;;;;;;;55.83;25.87;;;5.60;99.90;;;;;;7307740;19;20186;-74
2024/03/07 03:42:43;;;;;;;58.40;27.67;;;5.50;99.90;;;;;;7286748;19;20184;-75
2024/03/07 03:45:14;;;;;;;54.73;25.57;;;5.50;99.90;;;;;;7283132;19;20197;-74
2024/03/07 03:47:41;;;;;;;50.80;24.57;;;5.50;99.90;;;;;;7280769;19;20632;-75
2024/03/07 03:50:08;;;;;;;44.80;22.33;;;5.60;99.90;;;;;;7279239;19;20198;-75
2024/03/07 03:52:37;;;;;;;47.40;22.20;;;5.50;99.90;;;;;;7280625;19;20244;-75
2024/03/07 03:55:06;;;;;;;49.43;23.57;;;5.50;99.90;;;;;;7279918;19;20189;-75
2024/03/07 03:57:33;;;;;;;56.10;26.90;;;5.50;99.90;;;;;;7278000;19;20554;-76
2024/03/07 03:59:59;;;;;;;47.67;22.60;;;5.50;99.90;;;;;;7279922;19;20253;-75
2024/03/07 04:02:25;;;;;;;59.10;26.77;;;5.60;99.90;;;;;;7279759;19;20186;-75
2024/03/07 04:04:52;;;;;;;58.87;27.70;;;5.60;99.90;;;;;;7278780;19;20187;-75
2024/03/07 04:07:19;;;;;;;50.70;24.87;;;5.60;99.90;;;;;;7288218;19;20188;-78
2024/03/07 04:09:45;;;;;;;61.10;29.33;;;5.50;99.90;;;;;;7301072;19;20662;-75
2024/03/07 04:12:12;;;;;;;63.10;29.13;;;5.40;99.90;;;;;;7278178;19;20185;-76
2024/03/07 04:14:40;;;;;;;65.80;30.13;;;5.40;99.90;;;;;;7278557;19;20261;-75
2024/03/07 04:17:07;;;;;;;59.43;28.67;;;5.50;99.90;;;;;;7277327;19;20529;-76
2024/03/07 04:19:38;;;;;;;64.47;27.77;;;5.50;99.90;;;;;;7279225;19;20518;-75
2024/03/07 04:22:04;;;;;;;68.90;30.90;;;5.40;99.90;;;;;;7280022;19;20210;-75
2024/03/07 04:24:32;;;;;;;76.00;33.97;;;5.40;99.90;;;;;;7277401;19;20185;-75
2024/03/07 04:27:00;;;;;;;74.93;34.17;;;5.50;99.90;;;;;;7279876;19;20643;-75
2024/03/07 04:29:29;;;;;;;78.40;33.00;;;5.50;99.90;;;;;;7277259;19;20226;-75
2024/03/07 04:31:54;;;;;;;76.80;33.97;;;5.50;99.90;;;;;;7276540;19;20199;-75
2024/03/07 04:34:20;;;;;;;88.27;38.47;;;5.50;99.90;;;;;;7277196;19;20626;-75
2024/03/07 04:36:46;;;;;;;88.23;36.60;;;5.50;99.90;;;;;;7298727;19;20189;-74
2024/03/07 04:39:22;;;;;;;85.43;37.70;;;5.50;99.90;;;;;;7277217;19;20620;-75
2024/03/07 04:41:48;;;;;;;89.80;39.03;;;5.60;99.90;;;;;;7268370;19;20959;-76
2024/03/07 04:44:14;;;;;;;86.33;37.07;;;5.60;99.90;;;;;;7297987;19;20719;-76
2024/03/07 04:46:42;;;;;;;94.23;39.33;;;5.50;99.90;;;;;;7276945;19;20276;-76
2024/03/07 04:49:09;;;;;;;91.80;38.63;;;5.50;99.90;;;;;;7276908;19;20175;-76
2024/03/07 04:51:34;;;;;;;86.40;37.43;;;5.50;99.90;;;;;;7276648;19;20250;-77
2024/03/07 04:54:00;;;;;;;84.47;37.93;;;5.50;99.90;;;;;;7277541;19;20192;-76
2024/03/07 04:56:26;;;;;;;79.47;35.83;;;5.50;99.90;;;;;;7277210;19;21005;-76
2024/03/07 04:58:53;;;;;;;98.03;41.87;;;5.50;99.90;;;;;;7276591;19;20190;-76
2024/03/07 05:01:20;;;;;;;92.80;38.40;;;5.50;99.90;;;;;;7276696;19;20214;-76
2024/03/07 05:03:46;;;;;;;88.80;36.97;;;5.50;99.90;;;;;;7297308;19;20309;-75
2024/03/07 05:06:12;;;;;;;94.60;38.77;;;5.50;99.90;;;;;;7276293;19;20180;-76
2024/03/07 05:08:38;;;;;;;91.13;38.53;;;5.50;99.90;;;;;;7276707;19;20198;-76
2024/03/07 05:11:04;;;;;;;91.07;39.30;;;5.50;99.90;;;;;;7274276;19;20197;-76
2024/03/07 05:13:31;;;;;;;94.80;41.40;;;5.50;99.90;;;;;;7277628;19;20200;-75
2024/03/07 05:15:57;;;;;;;88.30;36.73;;;5.50;99.90;;;;;;7275984;19;20284;-75
2024/03/07 05:18:23;;;;;;;93.30;41.03;;;5.50;99.90;;;;;;7278111;19;20206;-76
2024/03/07 05:20:49;;;;;;;108.50;43.77;;;5.50;99.90;;;;;;7282653;19;20648;-75
2024/03/07 05:23:15;;;;;;;115.80;44.57;;;5.60;99.90;;;;;;7298392;19;20648;-76
2024/03/07 05:25:41;;;;;;;107.23;44.93;;;5.50;99.90;;;;;;7278038;19;20228;-75
2024/03/07 05:28:06;;;;;;;106.90;43.23;;;5.50;99.90;;;;;;7276177;19;20196;-75
2024/03/07 05:30:33;;;;;;;105.17;43.10;;;5.50;99.90;;;;;;7277189;19;20553;-75
2024/03/07 05:33:01;;;;;;;105.90;43.00;;;5.60;99.90;;;;;;7278848;19;20189;-75
2024/03/07 05:35:29;;;;;;;109.07;43.47;;;5.60;99.90;;;;;;7276105;19;20196;-76
2024/03/07 05:37:56;;;;;;;121.90;45.23;;;5.50;99.90;;;;;;7282282;19;20197;-75
2024/03/07 05:40:22;;;;;;;117.47;45.00;;;5.50;99.90;;;;;;7284213;19;20829;-75
2024/03/07 05:42:48;;;;;;;119.07;46.70;;;5.40;99.90;;;;;;7294271;19;20268;-75
2024/03/07 05:45:17;;;;;;;126.13;48.33;;;5.40;99.90;;;;;;7305707;19;20707;-75
2024/03/07 05:47:43;;;;;;;131.53;50.00;;;5.40;99.90;;;;;;7284620;19;20191;-75
2024/03/07 05:50:09;;;;;;;125.30;48.23;;;5.40;99.90;;;;;;7282881;19;20197;-75
2024/03/07 05:52:35;;;;;;;124.70;50.10;;;5.40;99.90;;;;;;7284730;19;20192;-76
2024/03/07 05:55:00;;;;;;;120.97;46.70;;;5.30;99.90;;;;;;7284303;19;20224;-76
2024/03/07 05:57:26;;;;;;;182.07;50.07;;;5.20;99.90;;;;;;7286191;19;20197;-77
2024/03/07 05:59:52;;;;;;;266.93;53.50;;;5.10;99.90;;;;;;7283987;19;20205;-76
2024/03/07 06:02:19;;;;;;;126.57;49.37;;;4.80;99.90;;;;;;7300124;19;20731;-76
2024/03/07 06:04:45;;;;;;;138.97;50.70;;;4.80;99.90;;;;;;7307396;19;20189;-76
2024/03/07 06:07:12;;;;;;;133.30;49.63;;;4.90;99.90;;;;;;7284689;19;20204;-76
2024/03/07 06:09:38;;;;;;;132.70;50.40;;;5.00;99.90;;;;;;7286582;19;20206;-76
2024/03/07 06:12:04;;;;;;;156.80;54.90;;;4.90;99.90;;;;;;7284869;19;20206;-75
2024/03/07 06:14:30;;;;;;;161.13;55.67;;;5.00;99.90;;;;;;7284958;19;20252;-75
2024/03/07 06:16:58;;;;;;;157.57;54.10;;;5.20;99.90;;;;;;7284700;19;20651;-77
2024/03/07 06:19:24;;;;;;;160.47;56.03;;;5.20;99.90;;;;;;7282978;19;20206;-76
2024/03/07 06:21:49;;;;;;;158.10;54.67;;;5.20;99.90;;;;;;7284801;19;20192;-77
2024/03/07 06:24:18;;;;;;;169.20;58.53;;;5.20;99.90;;;;;;7305202;19;20193;-76
2024/03/07 06:29:13;;;;;;;169.50;57.63;;;5.40;99.90;;;;;;7287583;19;20735;-76
2024/03/07 06:31:40;;;;;;;172.33;57.50;;;5.40;99.90;;;;;;7286047;19;20181;-77
2024/03/07 06:34:06;;;;;;;163.17;57.63;;;5.50;99.90;;;;;;7287991;19;20184;-77
2024/03/07 06:36:32;;;;;;;160.90;57.37;;;5.70;99.90;;;;;;7283374;19;20206;-76
2024/03/07 06:38:58;;;;;;;177.67;58.87;;;5.80;99.90;;;;;;7284926;19;20247;-77
2024/03/07 06:41:25;;;;;;;180.83;60.47;;;5.80;99.90;;;;;;7283676;19;20201;-77
2024/03/07 06:43:53;;;;;;;198.70;60.73;;;6.00;99.90;;;;;;7283295;19;20190;-77
2024/03/07 06:46:19;;;;;;;180.77;57.83;;;6.00;99.90;;;;;;7304945;19;20200;-76
2024/03/07 06:48:45;;;;;;;194.53;62.07;;;6.10;99.90;;;;;;7283647;19;20195;-75
2024/03/07 06:51:12;;;;;;;186.83;61.40;;;6.20;99.90;;;;;;7284207;19;20663;-78
2024/03/07 06:53:38;;;;;;;207.93;64.63;;;6.30;99.90;;;;;;7285872;19;20651;-78
2024/03/07 06:56:06;;;;;;;187.60;62.07;;;6.40;99.90;;;;;;7283977;19;20190;-77
2024/03/07 06:58:32;;;;;;;198.77;64.53;;;6.40;99.90;;;;;;7284099;19;20185;-76
2024/03/07 07:01:00;;;;;;;186.80;61.63;;;6.50;99.90;;;;;;7284942;19;20225;-78
2024/03/07 07:03:27;;;;;;;185.50;60.53;;;6.50;99.90;;;;;;7285039;19;20193;-78
2024/03/07 07:05:54;;;;;;;185.23;61.13;;;6.50;99.90;;;;;;7284475;19;20200;-77
2024/03/07 07:08:21;;;;;;;176.33;60.47;;;6.60;99.90;;;;;;7308257;19;20206;-78
2024/03/07 07:10:48;;;;;;;183.93;61.73;;;6.80;99.90;;;;;;7282699;19;20268;-76
2024/03/07 07:13:13;;;;;;;161.30;57.50;;;6.90;99.90;;;;;;7282611;19;20218;-77
2024/03/07 07:15:39;;;;;;;155.43;57.87;;;7.10;99.90;;;;;;7281373;19;20190;-76
2024/03/07 07:18:07;;;;;;;158.63;57.13;;;7.20;99.90;;;;;;7284294;19;20191;-77
2024/03/07 07:20:34;;;;;;;151.03;57.03;;;7.30;99.90;;;;;;7283890;19;20197;-77
2024/03/07 07:23:02;;;;;;;146.80;55.33;;;7.50;99.90;;;;;;7284560;19;20187;-76
2024/03/07 07:25:27;;;;;;;140.40;55.23;;;7.60;99.90;;;;;;7283854;19;20181;-77
2024/03/07 07:27:53;;;;;;;138.23;54.03;;;7.70;99.90;;;;;;7283687;19;20193;-77
2024/03/07 07:30:22;;;;;;;124.03;50.90;;;8.00;99.90;;;;;;7304368;19;20193;-76
2024/03/07 07:32:49;;;;;;;115.27;49.20;;;8.30;99.90;;;;;;7283960;19;20190;-77
2024/03/07 07:35:15;;;;;;;106.93;47.17;;;8.70;99.90;;;;;;7283519;19;20187;-77
2024/03/07 07:37:44;;;;;;;92.03;45.67;;;9.10;99.90;;;;;;7283731;19;20565;-77
2024/03/07 07:40:18;;;;;;;94.10;44.07;;;9.60;99.90;;;;;;7284644;19;20188;-77
2024/03/07 07:42:47;;;;;;;96.20;44.27;;;9.70;99.90;;;;;;7283501;19;20205;-77
2024/03/07 07:45:14;;;;;;;88.33;43.67;;;9.70;99.90;;;;;;7283447;19;20717;-77
2024/03/07 07:47:45;;;;;;;87.80;42.57;;;9.50;99.90;;;;;;7283391;19;20276;-76
2024/03/07 07:50:13;;;;;;;84.80;43.03;;;9.40;99.90;;;;;;7282404;19;20271;-77
2024/03/07 07:52:48;;;;;;;83.93;41.47;;;9.40;99.90;;;;;;7284020;19;20202;-77
2024/03/07 07:55:14;;;;;;;85.43;40.60;;;9.50;99.90;;;;;;7281642;19;20215;-77
2024/03/07 07:57:42;;;;;;;84.30;40.00;;;9.50;99.90;;;;;;7283421;19;20247;-77
2024/03/07 08:00:09;;;;;;;86.37;42.30;;;9.30;99.90;;;;;;7279956;19;20204;-77
2024/03/07 08:02:37;;;;;;;86.10;41.67;;;9.30;99.90;;;;;;7282366;19;20209;-77
2024/03/07 08:05:05;;;;;;;86.30;42.67;;;9.30;99.90;;;;;;7283238;19;20708;-77
2024/03/07 08:07:31;;;;;;;78.33;38.27;;;9.40;99.90;;;;;;7283157;19;20194;-77
2024/03/07 08:09:57;;;;;;;82.57;40.33;;;9.60;99.90;;;;;;7282572;19;20190;-76
2024/03/07 08:12:22;;;;;;;75.63;40.17;;;9.80;99.90;;;;;;7283750;19;20196;-76
2024/03/07 08:14:48;;;;;;;81.80;40.20;;;10.10;99.90;;;;;;7304855;19;20185;-77
2024/03/07 08:17:14;;;;;;;75.80;38.07;;;10.60;99.90;;;;;;7282329;19;20188;-77
2024/03/07 08:19:42;;;;;;;73.97;37.87;;;10.70;99.90;;;;;;7282348;19;20185;-77
2024/03/07 08:22:07;;;;;;;80.03;40.07;;;10.40;99.90;;;;;;7281958;19;20289;-77
2024/03/07 08:24:33;;;;;;;75.70;38.70;;;10.30;99.90;;;;;;7280766;19;20197;-77
2024/03/07 08:26:59;;;;;;;74.73;37.87;;;10.00;99.90;;;;;;7282248;19;20312;-77
2024/03/07 08:29:24;;;;;;;73.97;36.67;;;9.60;99.90;;;;;;7280680;19;20186;-76
2024/03/07 08:31:50;;;;;;;76.60;37.20;;;9.50;99.90;;;;;;7303730;19;20194;-77
2024/03/07 08:34:16;;;;;;;69.07;34.63;;;9.40;99.90;;;;;;7282553;19;20263;-77
2024/03/07 08:36:42;;;;;;;80.17;37.73;;;9.10;99.90;;;;;;7282230;19;20204;-76
2024/03/07 08:39:10;;;;;;;71.97;35.30;;;9.10;99.90;;;;;;7281916;19;20548;-77
2024/03/07 08:41:40;;;;;;;77.43;36.17;;;8.90;99.90;;;;;;7281439;19;20786;-76
2024/03/07 08:44:07;;;;;;;78.60;37.23;;;9.00;99.90;;;;;;7281313;19;20700;-76
2024/03/07 08:46:33;;;;;;;71.67;36.23;;;9.10;99.90;;;;;;7281431;19;20842;-77
2024/03/07 08:48:59;;;;;;;72.43;34.67;;;9.20;99.90;;;;;;7281739;19;20277;-77
2024/03/07 08:51:24;;;;;;;75.17;37.17;;;9.20;99.90;;;;;;7281956;19;20195;-77
2024/03/07 08:53:50;;;;;;;70.07;34.50;;;9.30;99.90;;;;;;7302795;19;20219;-77
2024/03/07 08:56:16;;;;;;;70.00;34.63;;;9.40;99.90;;;;;;7281352;19;20275;-77
2024/03/07 08:58:43;;;;;;;68.17;34.27;;;9.30;99.90;;;;;;7280479;19;20200;-77
2024/03/07 09:01:09;;;;;;;70.07;35.00;;;9.20;99.90;;;;;;7282076;19;20196;-77
2024/03/07 09:03:35;;;;;;;73.30;35.27;;;9.30;99.90;;;;;;7281841;19;20572;-77
2024/03/07 09:06:00;;;;;;;71.50;35.17;;;9.40;99.90;;;;;;7281458;19;20190;-77
2024/03/07 09:08:26;;;;;;;76.90;36.03;;;9.60;99.90;;;;;;7282654;19;20207;-77
2024/03/07 09:10:55;;;;;;;66.63;34.33;;;9.50;99.90;;;;;;7287911;19;20204;-76
2024/03/07 09:13:21;;;;;;;71.63;35.70;;;9.40;99.90;;;;;;7310752;19;20187;-78
2024/03/07 09:15:47;;;;;;;73.93;36.50;;;9.20;99.90;;;;;;7290434;19;20620;-77
2024/03/07 09:18:13;;;;;;;74.97;36.03;;;9.40;99.90;;;;;;7291193;19;20199;-76
2024/03/07 09:20:38;;;;;;;69.17;34.07;;;9.60;99.90;;;;;;7289965;19;20192;-77
2024/03/07 09:23:04;;;;;;;71.07;36.43;;;10.00;99.90;;;;;;7288989;19;20184;-77
2024/03/07 09:25:32;;;;;;;69.20;34.77;;;10.10;99.90;;;;;;7287770;19;20190;-77
2024/03/07 09:28:01;;;;;;;74.73;37.70;;;10.30;99.90;;;;;;7283871;19;20190;-77
2024/03/07 09:30:27;;;;;;;73.33;36.43;;;10.40;99.90;;;;;;7286799;19;20194;-77
2024/03/07 09:32:56;;;;;;;70.97;35.20;;;10.40;99.90;;;;;;7286596;19;20318;-77
2024/03/07 09:35:22;;;;;;;70.20;35.37;;;10.60;99.90;;;;;;7299314;19;20259;-77
2024/03/07 09:37:47;;;;;;;71.47;37.03;;;10.90;99.90;;;;;;7307456;19;20184;-77
2024/03/07 09:40:13;;;;;;;69.87;36.07;;;11.00;99.90;;;;;;7284668;19;20277;-77
2024/03/07 09:42:47;;;;;;;72.27;36.73;;;11.20;99.90;;;;;;7286985;19;20185;-77
2024/03/07 09:45:18;;;;;;;71.23;35.93;;;11.20;99.90;;;;;;7286445;19;20696;-78
2024/03/07 09:47:49;;;;;;;75.70;37.33;;;10.70;99.90;;;;;;7284891;19;20300;-77
2024/03/07 09:50:21;;;;;;;76.10;36.80;;;10.60;99.90;;;;;;7285895;19;20538;-77
2024/03/07 09:52:51;;;;;;;74.20;35.80;;;10.50;99.90;;;;;;7286715;19;20209;-77
2024/03/07 09:55:18;;;;;;;79.33;38.87;;;10.70;99.90;;;;;;7285856;19;20698;-77
2024/03/07 09:57:46;;;;;;;73.77;36.83;;;10.60;99.90;;;;;;7285465;19;20303;-77
2024/03/07 10:00:22;;;;;;;75.70;35.93;;;10.20;99.90;;;;;;7281899;19;20177;-77
2024/03/07 10:02:54;;;;;;;77.10;37.73;;;9.90;99.90;;;;;;7283552;19;20189;-77
2024/03/07 10:05:21;;;;;;;73.10;36.80;;;9.90;99.90;;;;;;7286092;19;20188;-77
2024/03/07 10:07:47;;;;;;;72.73;35.60;;;10.00;99.90;;;;;;7285743;19;20648;-78
2024/03/07 10:10:13;;;;;;;66.77;34.37;;;10.20;99.90;;;;;;7284490;19;20209;-77
2024/03/07 10:12:39;;;;;;;64.23;34.53;;;10.20;99.90;;;;;;7283872;19;20189;-78
2024/03/07 10:15:12;;;;;;;65.23;34.97;;;10.60;99.90;;;;;;7284809;19;20189;-77
2024/03/07 10:17:40;;;;;;;61.77;34.27;;;11.20;99.90;;;;;;7284865;19;20716;-78
2024/03/07 10:20:09;;;;;;;61.30;34.27;;;12.20;99.90;;;;;;7285232;19;21005;-77
2024/03/07 10:22:38;;;;;;;58.07;32.17;;;12.40;99.90;;;;;;7284980;19;20195;-78
2024/03/07 10:25:04;;;;;;;59.40;33.90;;;12.60;99.90;;;;;;7282746;19;20653;-77
2024/03/07 10:27:30;;;;;;;59.03;32.83;;;12.90;99.90;;;;;;7279737;19;20209;-78
2024/03/07 10:29:56;;;;;;;64.40;34.57;;;13.40;99.90;;;;;;7282846;19;20539;-78
2024/03/07 10:32:22;;;;;;;61.53;32.83;;;14.30;99.90;;;;;;7296383;19;20658;-77
2024/03/07 10:34:52;;;;;;;57.80;32.23;;;14.80;99.90;;;;;;7307351;19;20185;-77
2024/03/07 10:37:21;;;;;;;53.00;32.40;;;15.10;99.90;;;;;;7284736;19;20611;-78
2024/03/07 10:39:49;;;;;;;53.80;32.37;;;15.70;99.90;;;;;;7283984;19;20648;-78
2024/03/07 10:42:16;;;;;;;55.03;33.10;;;15.90;99.90;;;;;;7284998;19;20221;-78
2024/03/07 10:44:47;;;;;;;60.43;33.83;;;15.50;99.90;;;;;;7284449;19;20264;-78
2024/03/07 10:47:23;;;;;;;58.77;34.33;;;15.10;99.90;;;;;;7285833;19;20214;-78
2024/03/07 10:50:14;;;;;;;56.80;34.00;;;15.30;99.90;;;;;;7285295;19;20191;-78
2024/03/07 10:53:03;;;;;;;55.37;32.37;;;15.20;99.90;;;;;;7181934;19;2004571;-76
2024/03/07 10:55:44;;;;;;;52.83;31.50;;;15.60;99.90;;;;;;7182276;19;2004575;-78
2024/03/07 10:58:35;;;;;;;53.07;33.13;;;16.60;99.90;;;;;;7285023;19;20185;-77
2024/03/07 11:01:03;;;;;;;52.17;31.53;;;16.70;99.90;;;;;;7182954;19;2004802;-77
2024/03/07 11:03:32;;;;;;;50.27;31.00;;;17.40;99.90;;;;;;7283546;19;20180;-78
2024/03/07 11:06:00;;;;;;;50.27;31.53;;;17.90;99.90;;;;;;7284231;19;20214;-77
2024/03/07 11:08:27;;;;;;;54.33;32.90;;;18.60;99.90;;;;;;7283985;19;20652;-78
2024/03/07 11:10:53;;;;;;;48.07;31.57;;;19.40;99.90;;;;;;7285168;19;20201;-77
2024/03/07 11:13:19;;;;;;;45.73;30.43;;;19.40;99.90;;;;;;7305770;19;20177;-78
2024/03/07 11:15:48;;;;;;;46.00;30.67;;;18.40;99.90;;;;;;7282464;19;20193;-77
2024/03/07 11:18:14;;;;;;;53.33;32.10;;;17.20;99.90;;;;;;7282771;19;20301;-77
2024/03/07 11:20:42;;;;;;;51.77;30.77;;;16.70;99.90;;;;;;7281438;19;20187;-77
2024/03/07 11:23:33;;;;;;;50.43;31.03;;;16.60;99.90;;;;;;7282189;19;20187;-77
2024/03/07 11:26:10;;;;;;;48.77;31.57;;;17.00;99.90;;;;;;7179204;19;2006086;-78
2024/03/07 11:28:37;;;;;;;47.60;29.53;;;16.80;99.90;;;;;;7280992;19;20196;-78
2024/03/07 11:31:12;;;;;;;51.63;31.33;;;16.60;99.90;;;;;;7281731;19;20216;-77
2024/03/07 11:33:41;;;;;;;45.80;29.47;;;16.60;99.90;;;;;;7281839;19;20618;-77
2024/03/07 11:36:09;;;;;;;48.47;31.17;;;15.90;99.90;;;;;;7283424;19;20182;-77
2024/03/07 11:38:35;;;;;;;45.97;29.60;;;15.70;99.90;;;;;;7282868;19;20216;-77
2024/03/07 11:41:05;;;;;;;48.87;30.33;;;15.70;99.90;;;;;;7283038;19;20185;-77
2024/03/07 11:43:35;;;;;;;46.17;30.03;;;15.90;99.90;;;;;;7282401;19;20187;-77
2024/03/07 11:46:01;;;;;;;49.80;31.13;;;16.10;99.90;;;;;;7280766;19;20243;-77
2024/03/07 11:48:27;;;;;;;48.67;30.13;;;15.90;99.90;;;;;;7282036;19;20191;-77
2024/03/07 11:50:55;;;;;;;45.23;28.37;;;15.90;99.90;;;;;;7284309;19;20206;-77
2024/03/07 11:53:21;;;;;;;43.27;28.10;;;16.00;99.90;;;;;;7305069;19;20191;-78
2024/03/07 11:55:48;;;;;;;40.80;27.37;;;16.10;99.90;;;;;;7283714;19;20187;-78
2024/03/07 11:58:23;;;;;;;42.80;27.03;;;16.40;99.90;;;;;;7284967;19;20195;-77
2024/03/07 12:00:51;;;;;;;43.23;26.77;;;16.60;99.90;;;;;;7298091;19;20729;-76
2024/03/07 12:03:21;;;;;;;39.77;26.33;;;16.60;99.90;;;;;;7298057;19;20815;-77
2024/03/07 12:05:51;;;;;;;42.00;26.60;;;16.90;99.90;;;;;;7301343;19;20188;-76
2024/03/07 12:08:17;;;;;;;39.83;25.73;;;17.30;99.90;;;;;;7283318;19;20181;-77
2024/03/07 12:10:44;;;;;;;44.90;28.50;;;17.80;99.90;;;;;;7282423;19;20174;-77
2024/03/07 12:13:11;;;;;;;46.53;28.93;;;17.40;99.90;;;;;;7281586;19;20648;-77
2024/03/07 12:15:38;;;;;;;41.70;27.90;;;17.20;99.90;;;;;;7280614;19;20197;-77
2024/03/07 12:18:14;;;;;;;39.00;25.50;;;16.30;99.90;;;;;;7281303;19;20197;-76
2024/03/07 12:20:41;;;;;;;42.00;26.73;;;15.10;99.90;;;;;;7285520;19;20223;-77
2024/03/07 12:23:08;;;;;;;44.77;28.30;;;14.30;99.90;;;;;;7281643;19;20195;-77
2024/03/07 12:25:38;;;;;;;40.80;27.30;;;13.70;99.90;;;;;;7281793;19;20192;-76
2024/03/07 12:28:11;;;;;;;42.83;27.27;;;13.20;99.90;;;;;;7280305;19;20204;-76
2024/03/07 12:30:45;;;;;;;42.43;26.87;;;13.10;99.90;;;;;;7280754;19;20224;-77
2024/03/07 12:33:13;;;;;;;39.53;25.83;;;13.20;99.90;;;;;;7282138;19;20195;-77
2024/03/07 12:35:43;;;;;;;39.10;24.60;;;13.50;99.90;;;;;;7280793;19;20588;-76
2024/03/07 12:38:15;;;;;;;40.03;25.70;;;14.00;99.90;;;;;;7280010;19;20569;-77